sensor_id;sensor_type;location;lat;lon;timestamp;P1;durP1;ratioP1;P2;durP2;ratioP2
23228;SDS011;11783;50.350;6.576;2022-12-13T00:01:22;20.55;;;9.43;;
23228;SDS011;11783;50.350;6.576;2022-12-13T00:03:48;21.50;;;9.60;;
23228;SDS011;11783;50.350;6.576;2022-12-13T00:06:16;22.58;;;9.45;;
23228;SDS011;11783;50.350;6.576;2022-12-13T00:08:41;21.75;;;9.88;;
23228;SDS011;11783;50.350;6.576;2022-12-13T00:11:07;20.90;;;9.52;;
23228;SDS011;11783;50.350;6.576;2022-12-13T00:13:36;19.92;;;9.30;;
23228;SDS011;11783;50.350;6.576;2022-12-13T00:16:03;21.65;;;9.50;;
23228;SDS011;11783;50.350;6.576;2022-12-13T00:18:30;21.08;;;9.52;;
23228;SDS011;11783;50.350;6.576;2022-12-13T00:20:56;22.42;;;9.18;;
23228;SDS011;11783;50.350;6.576;2022-12-13T00:23:21;25.25;;;10.52;;
23228;SDS011;11783;50.350;6.576;2022-12-13T00:25:47;21.35;;;9.32;;
23228;SDS011;11783;50.350;6.576;2022-12-13T00:28:13;17.92;;;9.00;;
23228;SDS011;11783;50.350;6.576;2022-12-13T00:30:39;17.73;;;8.73;;
23228;SDS011;11783;50.350;6.576;2022-12-13T00:33:04;21.25;;;9.27;;
23228;SDS011;11783;50.350;6.576;2022-12-13T00:35:30;19.70;;;9.02;;
23228;SDS011;11783;50.350;6.576;2022-12-13T00:38:03;20.77;;;8.77;;
23228;SDS011;11783;50.350;6.576;2022-12-13T00:40:29;22.27;;;9.07;;
23228;SDS011;11783;50.350;6.576;2022-12-13T00:42:54;21.52;;;9.32;;
23228;SDS011;11783;50.350;6.576;2022-12-13T00:45:19;19.55;;;9.23;;
23228;SDS011;11783;50.350;6.576;2022-12-13T00:47:45;25.00;;;10.75;;
23228;SDS011;11783;50.350;6.576;2022-12-13T00:50:10;22.30;;;10.48;;
23228;SDS011;11783;50.350;6.576;2022-12-13T00:52:35;22.63;;;10.63;;
23228;SDS011;11783;50.350;6.576;2022-12-13T00:55:00;25.40;;;11.52;;
23228;SDS011;11783;50.350;6.576;2022-12-13T00:57:26;23.88;;;10.73;;
23228;SDS011;11783;50.350;6.576;2022-12-13T00:59:52;22.00;;;10.15;;
23228;SDS011;11783;50.350;6.576;2022-12-13T01:02:17;23.88;;;9.90;;
23228;SDS011;11783;50.350;6.576;2022-12-13T01:04:42;21.70;;;9.48;;
23228;SDS011;11783;50.350;6.576;2022-12-13T01:07:07;21.98;;;10.32;;
23228;SDS011;11783;50.350;6.576;2022-12-13T01:09:33;21.08;;;9.60;;
23228;SDS011;11783;50.350;6.576;2022-12-13T01:12:03;22.92;;;9.55;;
23228;SDS011;11783;50.350;6.576;2022-12-13T01:14:29;21.23;;;9.30;;
23228;SDS011;11783;50.350;6.576;2022-12-13T01:16:55;19.77;;;9.13;;
23228;SDS011;11783;50.350;6.576;2022-12-13T01:19:21;19.48;;;9.30;;
23228;SDS011;11783;50.350;6.576;2022-12-13T01:21:54;20.17;;;8.43;;
23228;SDS011;11783;50.350;6.576;2022-12-13T01:24:20;22.77;;;9.95;;
23228;SDS011;11783;50.350;6.576;2022-12-13T01:26:46;22.88;;;9.90;;
23228;SDS011;11783;50.350;6.576;2022-12-13T01:29:12;16.45;;;8.65;;
23228;SDS011;11783;50.350;6.576;2022-12-13T01:31:37;21.13;;;9.05;;
23228;SDS011;11783;50.350;6.576;2022-12-13T01:34:05;19.48;;;8.63;;
23228;SDS011;11783;50.350;6.576;2022-12-13T01:36:34;15.93;;;8.50;;
23228;SDS011;11783;50.350;6.576;2022-12-13T01:39:00;20.80;;;9.30;;
23228;SDS011;11783;50.350;6.576;2022-12-13T01:41:26;18.85;;;8.98;;
23228;SDS011;11783;50.350;6.576;2022-12-13T01:43:53;20.13;;;8.88;;
23228;SDS011;11783;50.350;6.576;2022-12-13T01:46:21;21.13;;;8.98;;
23228;SDS011;11783;50.350;6.576;2022-12-13T01:48:48;19.83;;;9.15;;
23228;SDS011;11783;50.350;6.576;2022-12-13T01:51:23;21.85;;;9.45;;
23228;SDS011;11783;50.350;6.576;2022-12-13T01:53:53;20.83;;;9.48;;
23228;SDS011;11783;50.350;6.576;2022-12-13T01:58:53;23.17;;;9.90;;
23228;SDS011;11783;50.350;6.576;2022-12-13T02:01:20;21.95;;;9.55;;
23228;SDS011;11783;50.350;6.576;2022-12-13T02:03:46;25.45;;;10.88;;
23228;SDS011;11783;50.350;6.576;2022-12-13T02:06:13;24.90;;;10.38;;
23228;SDS011;11783;50.350;6.576;2022-12-13T02:08:43;25.52;;;10.57;;
23228;SDS011;11783;50.350;6.576;2022-12-13T02:11:10;24.92;;;9.93;;
23228;SDS011;11783;50.350;6.576;2022-12-13T02:13:36;24.30;;;10.07;;
23228;SDS011;11783;50.350;6.576;2022-12-13T02:27:31;27.45;;;10.35;;
23228;SDS011;11783;50.350;6.576;2022-12-13T02:35:27;16.83;;;7.93;;
23228;SDS011;11783;50.350;6.576;2022-12-13T02:41:25;25.98;;;10.98;;
23228;SDS011;11783;50.350;6.576;2022-12-13T02:43:41;24.38;;;10.75;;
23228;SDS011;11783;50.350;6.576;2022-12-13T02:46:14;25.38;;;10.50;;
23228;SDS011;11783;50.350;6.576;2022-12-13T02:48:42;23.98;;;9.85;;
23228;SDS011;11783;50.350;6.576;2022-12-13T02:51:10;26.83;;;11.32;;
23228;SDS011;11783;50.350;6.576;2022-12-13T02:53:37;25.80;;;11.35;;
23228;SDS011;11783;50.350;6.576;2022-12-13T02:56:05;25.60;;;11.88;;
23228;SDS011;11783;50.350;6.576;2022-12-13T02:58:34;27.77;;;11.90;;
23228;SDS011;11783;50.350;6.576;2022-12-13T03:03:59;26.35;;;11.15;;
23228;SDS011;11783;50.350;6.576;2022-12-13T03:14:35;29.00;;;12.18;;
23228;SDS011;11783;50.350;6.576;2022-12-13T03:17:06;26.45;;;11.20;;
23228;SDS011;11783;50.350;6.576;2022-12-13T03:19:34;29.88;;;12.15;;
23228;SDS011;11783;50.350;6.576;2022-12-13T03:22:00;27.20;;;11.88;;
23228;SDS011;11783;50.350;6.576;2022-12-13T03:24:30;25.00;;;11.55;;
23228;SDS011;11783;50.350;6.576;2022-12-13T03:26:55;24.65;;;10.80;;
23228;SDS011;11783;50.350;6.576;2022-12-13T03:29:21;26.27;;;11.50;;
23228;SDS011;11783;50.350;6.576;2022-12-13T03:31:46;26.05;;;10.65;;
23228;SDS011;11783;50.350;6.576;2022-12-13T03:34:12;29.00;;;11.90;;
23228;SDS011;11783;50.350;6.576;2022-12-13T03:36:37;25.48;;;11.02;;
23228;SDS011;11783;50.350;6.576;2022-12-13T03:39:02;23.70;;;12.05;;
23228;SDS011;11783;50.350;6.576;2022-12-13T03:41:28;27.70;;;11.68;;
23228;SDS011;11783;50.350;6.576;2022-12-13T03:43:59;28.95;;;11.27;;
23228;SDS011;11783;50.350;6.576;2022-12-13T03:46:29;26.70;;;11.30;;
23228;SDS011;11783;50.350;6.576;2022-12-13T03:48:54;28.73;;;12.02;;
23228;SDS011;11783;50.350;6.576;2022-12-13T03:51:19;27.42;;;11.65;;
23228;SDS011;11783;50.350;6.576;2022-12-13T03:53:45;25.83;;;11.68;;
23228;SDS011;11783;50.350;6.576;2022-12-13T03:56:10;28.45;;;12.02;;
23228;SDS011;11783;50.350;6.576;2022-12-13T03:58:36;27.35;;;11.98;;
23228;SDS011;11783;50.350;6.576;2022-12-13T04:01:01;26.10;;;11.13;;
23228;SDS011;11783;50.350;6.576;2022-12-13T04:03:26;28.40;;;12.27;;
23228;SDS011;11783;50.350;6.576;2022-12-13T04:05:52;26.20;;;11.55;;
23228;SDS011;11783;50.350;6.576;2022-12-13T04:08:17;29.90;;;12.32;;
23228;SDS011;11783;50.350;6.576;2022-12-13T04:10:42;28.38;;;12.20;;
23228;SDS011;11783;50.350;6.576;2022-12-13T04:13:08;26.02;;;11.45;;
23228;SDS011;11783;50.350;6.576;2022-12-13T04:15:52;28.10;;;11.35;;
23228;SDS011;11783;50.350;6.576;2022-12-13T04:18:18;29.45;;;12.35;;
23228;SDS011;11783;50.350;6.576;2022-12-13T04:20:43;26.85;;;11.30;;
23228;SDS011;11783;50.350;6.576;2022-12-13T04:23:09;27.40;;;12.63;;
23228;SDS011;11783;50.350;6.576;2022-12-13T04:25:35;29.80;;;12.30;;
23228;SDS011;11783;50.350;6.576;2022-12-13T04:28:00;26.13;;;11.77;;
23228;SDS011;11783;50.350;6.576;2022-12-13T04:30:26;27.48;;;11.57;;
23228;SDS011;11783;50.350;6.576;2022-12-13T04:32:51;26.40;;;11.38;;
23228;SDS011;11783;50.350;6.576;2022-12-13T04:35:16;30.35;;;11.70;;
23228;SDS011;11783;50.350;6.576;2022-12-13T04:37:41;27.05;;;12.10;;
23228;SDS011;11783;50.350;6.576;2022-12-13T04:40:07;25.67;;;11.13;;
23228;SDS011;11783;50.350;6.576;2022-12-13T04:42:33;28.83;;;11.95;;
23228;SDS011;11783;50.350;6.576;2022-12-13T04:44:58;26.65;;;12.32;;
23228;SDS011;11783;50.350;6.576;2022-12-13T04:47:23;29.05;;;11.90;;
23228;SDS011;11783;50.350;6.576;2022-12-13T04:49:49;27.25;;;11.77;;
23228;SDS011;11783;50.350;6.576;2022-12-13T04:52:14;28.92;;;11.98;;
23228;SDS011;11783;50.350;6.576;2022-12-13T04:54:39;26.35;;;11.60;;
23228;SDS011;11783;50.350;6.576;2022-12-13T04:57:06;27.15;;;11.75;;
23228;SDS011;11783;50.350;6.576;2022-12-13T04:59:34;26.98;;;11.63;;
23228;SDS011;11783;50.350;6.576;2022-12-13T05:02:00;32.90;;;12.20;;
23228;SDS011;11783;50.350;6.576;2022-12-13T05:04:25;28.17;;;11.95;;
23228;SDS011;11783;50.350;6.576;2022-12-13T05:06:50;26.83;;;11.75;;
23228;SDS011;11783;50.350;6.576;2022-12-13T05:09:16;27.58;;;11.50;;
23228;SDS011;11783;50.350;6.576;2022-12-13T05:11:41;26.83;;;12.13;;
23228;SDS011;11783;50.350;6.576;2022-12-13T05:14:06;29.17;;;12.75;;
23228;SDS011;11783;50.350;6.576;2022-12-13T05:16:31;28.30;;;12.45;;
23228;SDS011;11783;50.350;6.576;2022-12-13T05:18:57;27.83;;;11.90;;
23228;SDS011;11783;50.350;6.576;2022-12-13T05:21:22;27.45;;;12.65;;
23228;SDS011;11783;50.350;6.576;2022-12-13T05:23:47;27.92;;;11.80;;
23228;SDS011;11783;50.350;6.576;2022-12-13T05:26:13;28.67;;;11.50;;
23228;SDS011;11783;50.350;6.576;2022-12-13T05:28:38;31.90;;;12.40;;
23228;SDS011;11783;50.350;6.576;2022-12-13T05:31:07;28.75;;;11.18;;
23228;SDS011;11783;50.350;6.576;2022-12-13T05:33:34;26.45;;;11.57;;
23228;SDS011;11783;50.350;6.576;2022-12-13T05:35:59;26.02;;;12.23;;
23228;SDS011;11783;50.350;6.576;2022-12-13T05:38:25;25.88;;;11.40;;
23228;SDS011;11783;50.350;6.576;2022-12-13T05:40:50;28.02;;;12.27;;
23228;SDS011;11783;50.350;6.576;2022-12-13T05:43:15;26.20;;;11.93;;
23228;SDS011;11783;50.350;6.576;2022-12-13T05:45:41;27.08;;;11.73;;
23228;SDS011;11783;50.350;6.576;2022-12-13T05:48:06;25.42;;;11.70;;
23228;SDS011;11783;50.350;6.576;2022-12-13T05:50:33;28.15;;;11.80;;
23228;SDS011;11783;50.350;6.576;2022-12-13T05:52:58;28.73;;;11.98;;
23228;SDS011;11783;50.350;6.576;2022-12-13T05:55:24;26.92;;;11.43;;
23228;SDS011;11783;50.350;6.576;2022-12-13T05:57:49;26.23;;;11.38;;
23228;SDS011;11783;50.350;6.576;2022-12-13T06:00:14;27.35;;;11.65;;
23228;SDS011;11783;50.350;6.576;2022-12-13T06:02:40;27.25;;;11.65;;
23228;SDS011;11783;50.350;6.576;2022-12-13T06:05:08;29.08;;;12.23;;
23228;SDS011;11783;50.350;6.576;2022-12-13T06:07:34;29.90;;;11.93;;
23228;SDS011;11783;50.350;6.576;2022-12-13T06:10:00;25.77;;;11.93;;
23228;SDS011;11783;50.350;6.576;2022-12-13T06:12:26;31.92;;;12.63;;
23228;SDS011;11783;50.350;6.576;2022-12-13T06:14:52;27.02;;;11.82;;
23228;SDS011;11783;50.350;6.576;2022-12-13T06:17:17;27.80;;;12.35;;
23228;SDS011;11783;50.350;6.576;2022-12-13T06:19:43;37.53;;;14.88;;
23228;SDS011;11783;50.350;6.576;2022-12-13T06:22:10;34.45;;;14.02;;
23228;SDS011;11783;50.350;6.576;2022-12-13T06:24:35;31.60;;;13.57;;
23228;SDS011;11783;50.350;6.576;2022-12-13T06:27:00;30.30;;;12.77;;
23228;SDS011;11783;50.350;6.576;2022-12-13T06:29:26;27.90;;;12.18;;
23228;SDS011;11783;50.350;6.576;2022-12-13T06:31:52;29.33;;;12.38;;
23228;SDS011;11783;50.350;6.576;2022-12-13T06:34:19;30.73;;;12.10;;
23228;SDS011;11783;50.350;6.576;2022-12-13T06:36:44;25.92;;;11.85;;
23228;SDS011;11783;50.350;6.576;2022-12-13T06:39:09;27.10;;;12.02;;
23228;SDS011;11783;50.350;6.576;2022-12-13T06:41:35;32.08;;;12.65;;
23228;SDS011;11783;50.350;6.576;2022-12-13T06:44:00;29.05;;;12.93;;
23228;SDS011;11783;50.350;6.576;2022-12-13T06:46:26;26.17;;;12.07;;
23228;SDS011;11783;50.350;6.576;2022-12-13T06:48:51;30.40;;;12.95;;
23228;SDS011;11783;50.350;6.576;2022-12-13T06:51:17;26.55;;;11.82;;
23228;SDS011;11783;50.350;6.576;2022-12-13T06:53:42;27.77;;;11.98;;
23228;SDS011;11783;50.350;6.576;2022-12-13T06:56:09;27.45;;;10.85;;
23228;SDS011;11783;50.350;6.576;2022-12-13T06:58:36;26.40;;;11.38;;
23228;SDS011;11783;50.350;6.576;2022-12-13T07:01:02;26.25;;;12.25;;
23228;SDS011;11783;50.350;6.576;2022-12-13T07:03:48;27.00;;;12.13;;
23228;SDS011;11783;50.350;6.576;2022-12-13T07:06:15;28.27;;;11.10;;
23228;SDS011;11783;50.350;6.576;2022-12-13T07:08:42;28.33;;;11.95;;
23228;SDS011;11783;50.350;6.576;2022-12-13T07:11:13;30.90;;;12.82;;
23228;SDS011;11783;50.350;6.576;2022-12-13T07:13:39;31.00;;;12.40;;
23228;SDS011;11783;50.350;6.576;2022-12-13T07:16:05;26.75;;;11.30;;
23228;SDS011;11783;50.350;6.576;2022-12-13T07:18:31;27.10;;;11.18;;
23228;SDS011;11783;50.350;6.576;2022-12-13T07:20:56;27.73;;;11.88;;
23228;SDS011;11783;50.350;6.576;2022-12-13T07:23:21;30.75;;;12.02;;
23228;SDS011;11783;50.350;6.576;2022-12-13T07:25:53;29.63;;;12.45;;
23228;SDS011;11783;50.350;6.576;2022-12-13T07:28:19;32.28;;;12.00;;
23228;SDS011;11783;50.350;6.576;2022-12-13T07:30:45;24.65;;;11.38;;
23228;SDS011;11783;50.350;6.576;2022-12-13T07:33:11;28.33;;;11.30;;
23228;SDS011;11783;50.350;6.576;2022-12-13T07:35:37;27.45;;;12.65;;
23228;SDS011;11783;50.350;6.576;2022-12-13T07:38:03;29.00;;;10.93;;
23228;SDS011;11783;50.350;6.576;2022-12-13T07:40:29;29.23;;;11.88;;
23228;SDS011;11783;50.350;6.576;2022-12-13T07:42:55;29.33;;;12.73;;
23228;SDS011;11783;50.350;6.576;2022-12-13T07:45:21;28.75;;;11.98;;
23228;SDS011;11783;50.350;6.576;2022-12-13T07:47:47;25.77;;;11.88;;
23228;SDS011;11783;50.350;6.576;2022-12-13T07:50:13;32.45;;;12.88;;
23228;SDS011;11783;50.350;6.576;2022-12-13T07:52:38;33.17;;;12.45;;
23228;SDS011;11783;50.350;6.576;2022-12-13T07:55:04;36.58;;;14.20;;
23228;SDS011;11783;50.350;6.576;2022-12-13T07:57:31;33.05;;;13.32;;
23228;SDS011;11783;50.350;6.576;2022-12-13T07:59:56;30.50;;;13.25;;
23228;SDS011;11783;50.350;6.576;2022-12-13T08:02:22;28.60;;;12.50;;
23228;SDS011;11783;50.350;6.576;2022-12-13T08:04:48;28.83;;;13.25;;
23228;SDS011;11783;50.350;6.576;2022-12-13T08:07:13;29.80;;;13.38;;
23228;SDS011;11783;50.350;6.576;2022-12-13T08:09:39;31.02;;;13.88;;
23228;SDS011;11783;50.350;6.576;2022-12-13T08:12:04;28.10;;;12.35;;
23228;SDS011;11783;50.350;6.576;2022-12-13T08:14:29;27.42;;;11.90;;
23228;SDS011;11783;50.350;6.576;2022-12-13T08:16:55;28.00;;;12.88;;
23228;SDS011;11783;50.350;6.576;2022-12-13T08:19:21;34.45;;;14.00;;
23228;SDS011;11783;50.350;6.576;2022-12-13T08:21:46;42.72;;;16.08;;
23228;SDS011;11783;50.350;6.576;2022-12-13T08:24:12;34.40;;;15.98;;
23228;SDS011;11783;50.350;6.576;2022-12-13T08:26:37;33.83;;;15.77;;
23228;SDS011;11783;50.350;6.576;2022-12-13T08:29:02;33.72;;;15.15;;
23228;SDS011;11783;50.350;6.576;2022-12-13T08:31:28;36.33;;;16.25;;
23228;SDS011;11783;50.350;6.576;2022-12-13T08:33:54;38.67;;;15.93;;
23228;SDS011;11783;50.350;6.576;2022-12-13T08:36:19;37.88;;;16.83;;
23228;SDS011;11783;50.350;6.576;2022-12-13T08:38:48;36.22;;;16.20;;
23228;SDS011;11783;50.350;6.576;2022-12-13T08:41:13;39.10;;;16.98;;
23228;SDS011;11783;50.350;6.576;2022-12-13T08:43:38;40.08;;;17.90;;
23228;SDS011;11783;50.350;6.576;2022-12-13T08:46:04;40.47;;;18.55;;
23228;SDS011;11783;50.350;6.576;2022-12-13T08:48:30;38.05;;;17.02;;
23228;SDS011;11783;50.350;6.576;2022-12-13T08:50:59;40.25;;;17.27;;
23228;SDS011;11783;50.350;6.576;2022-12-13T08:53:25;33.25;;;13.82;;
23228;SDS011;11783;50.350;6.576;2022-12-13T08:55:50;40.17;;;17.55;;
23228;SDS011;11783;50.350;6.576;2022-12-13T08:58:16;38.20;;;18.05;;
23228;SDS011;11783;50.350;6.576;2022-12-13T09:00:41;37.65;;;16.40;;
23228;SDS011;11783;50.350;6.576;2022-12-13T09:03:07;38.20;;;16.40;;
23228;SDS011;11783;50.350;6.576;2022-12-13T09:05:33;41.47;;;18.92;;
23228;SDS011;11783;50.350;6.576;2022-12-13T09:07:58;43.75;;;19.38;;
23228;SDS011;11783;50.350;6.576;2022-12-13T09:10:26;49.42;;;21.50;;
23228;SDS011;11783;50.350;6.576;2022-12-13T09:12:52;40.65;;;18.85;;
23228;SDS011;11783;50.350;6.576;2022-12-13T09:15:18;39.15;;;17.77;;
23228;SDS011;11783;50.350;6.576;2022-12-13T09:17:44;41.63;;;18.75;;
23228;SDS011;11783;50.350;6.576;2022-12-13T09:20:10;46.17;;;20.98;;
23228;SDS011;11783;50.350;6.576;2022-12-13T09:22:36;40.15;;;19.13;;
23228;SDS011;11783;50.350;6.576;2022-12-13T09:25:02;41.10;;;18.73;;
23228;SDS011;11783;50.350;6.576;2022-12-13T09:27:29;41.08;;;17.85;;
23228;SDS011;11783;50.350;6.576;2022-12-13T09:29:55;38.60;;;17.15;;
23228;SDS011;11783;50.350;6.576;2022-12-13T09:32:20;36.50;;;16.33;;
23228;SDS011;11783;50.350;6.576;2022-12-13T09:34:46;38.42;;;17.85;;
23228;SDS011;11783;50.350;6.576;2022-12-13T09:37:11;36.28;;;16.73;;
23228;SDS011;11783;50.350;6.576;2022-12-13T09:39:37;40.83;;;17.95;;
23228;SDS011;11783;50.350;6.576;2022-12-13T09:42:03;39.90;;;16.45;;
23228;SDS011;11783;50.350;6.576;2022-12-13T09:44:35;36.27;;;16.67;;
23228;SDS011;11783;50.350;6.576;2022-12-13T09:47:03;43.67;;;17.65;;
23228;SDS011;11783;50.350;6.576;2022-12-13T09:49:43;38.85;;;17.52;;
23228;SDS011;11783;50.350;6.576;2022-12-13T09:52:13;43.25;;;19.02;;
23228;SDS011;11783;50.350;6.576;2022-12-13T09:54:42;42.83;;;18.48;;
23228;SDS011;11783;50.350;6.576;2022-12-13T09:57:08;47.03;;;19.98;;
23228;SDS011;11783;50.350;6.576;2022-12-13T09:59:42;46.90;;;19.52;;
23228;SDS011;11783;50.350;6.576;2022-12-13T10:02:13;45.75;;;19.40;;
23228;SDS011;11783;50.350;6.576;2022-12-13T10:04:42;50.97;;;20.48;;
23228;SDS011;11783;50.350;6.576;2022-12-13T10:07:12;51.33;;;21.20;;
23228;SDS011;11783;50.350;6.576;2022-12-13T10:09:44;49.45;;;21.58;;
23228;SDS011;11783;50.350;6.576;2022-12-13T10:12:11;49.83;;;21.88;;
23228;SDS011;11783;50.350;6.576;2022-12-13T10:14:39;49.35;;;20.92;;
23228;SDS011;11783;50.350;6.576;2022-12-13T10:17:12;56.05;;;20.85;;
23228;SDS011;11783;50.350;6.576;2022-12-13T10:19:43;49.15;;;20.67;;
23228;SDS011;11783;50.350;6.576;2022-12-13T10:22:11;43.97;;;19.00;;
23228;SDS011;11783;50.350;6.576;2022-12-13T10:24:52;41.10;;;18.88;;
23228;SDS011;11783;50.350;6.576;2022-12-13T10:30:12;32.97;;;15.23;;
23228;SDS011;11783;50.350;6.576;2022-12-13T10:32:47;33.60;;;16.27;;
23228;SDS011;11783;50.350;6.576;2022-12-13T10:35:19;35.55;;;16.80;;
23228;SDS011;11783;50.350;6.576;2022-12-13T10:37:45;27.52;;;14.13;;
23228;SDS011;11783;50.350;6.576;2022-12-13T10:45:42;27.30;;;11.80;;
23228;SDS011;11783;50.350;6.576;2022-12-13T10:48:33;22.27;;;10.70;;
23228;SDS011;11783;50.350;6.576;2022-12-13T10:51:13;22.83;;;11.65;;
23228;SDS011;11783;50.350;6.576;2022-12-13T10:53:45;21.02;;;10.55;;
23228;SDS011;11783;50.350;6.576;2022-12-13T10:56:13;23.48;;;10.75;;
23228;SDS011;11783;50.350;6.576;2022-12-13T10:58:42;23.38;;;10.57;;
23228;SDS011;11783;50.350;6.576;2022-12-13T11:01:18;21.35;;;9.95;;
23228;SDS011;11783;50.350;6.576;2022-12-13T11:03:54;18.25;;;9.60;;
23228;SDS011;11783;50.350;6.576;2022-12-13T11:06:24;20.45;;;10.13;;
23228;SDS011;11783;50.350;6.576;2022-12-13T11:08:51;19.50;;;8.80;;
23228;SDS011;11783;50.350;6.576;2022-12-13T11:11:17;20.17;;;9.68;;
23228;SDS011;11783;50.350;6.576;2022-12-13T11:13:53;16.98;;;8.55;;
23228;SDS011;11783;50.350;6.576;2022-12-13T11:16:34;20.45;;;8.82;;
23228;SDS011;11783;50.350;6.576;2022-12-13T11:19:15;17.30;;;9.15;;
23228;SDS011;11783;50.350;6.576;2022-12-13T11:21:48;11.93;;;6.37;;
23228;SDS011;11783;50.350;6.576;2022-12-13T11:24:28;13.63;;;6.80;;
23228;SDS011;11783;50.350;6.576;2022-12-13T11:27:04;12.35;;;6.68;;
23228;SDS011;11783;50.350;6.576;2022-12-13T11:35:35;12.35;;;5.80;;
23228;SDS011;11783;50.350;6.576;2022-12-13T11:38:09;11.55;;;5.57;;
23228;SDS011;11783;50.350;6.576;2022-12-13T11:40:55;11.23;;;5.38;;
23228;SDS011;11783;50.350;6.576;2022-12-13T11:43:42;8.98;;;5.00;;
23228;SDS011;11783;50.350;6.576;2022-12-13T11:46:57;11.13;;;5.45;;
23228;SDS011;11783;50.350;6.576;2022-12-13T11:49:08;11.63;;;5.80;;
23228;SDS011;11783;50.350;6.576;2022-12-13T11:51:44;12.55;;;4.85;;
23228;SDS011;11783;50.350;6.576;2022-12-13T11:54:16;11.05;;;4.97;;
23228;SDS011;11783;50.350;6.576;2022-12-13T11:56:48;10.85;;;4.68;;
23228;SDS011;11783;50.350;6.576;2022-12-13T12:04:49;10.70;;;5.15;;
23228;SDS011;11783;50.350;6.576;2022-12-13T12:07:18;8.82;;;4.80;;
23228;SDS011;11783;50.350;6.576;2022-12-13T12:09:54;10.80;;;5.43;;
23228;SDS011;11783;50.350;6.576;2022-12-13T12:12:32;11.90;;;5.50;;
23228;SDS011;11783;50.350;6.576;2022-12-13T12:15:04;10.43;;;5.15;;
23228;SDS011;11783;50.350;6.576;2022-12-13T12:17:36;11.80;;;5.00;;
23228;SDS011;11783;50.350;6.576;2022-12-13T12:20:01;9.63;;;4.90;;
23228;SDS011;11783;50.350;6.576;2022-12-13T12:30:23;10.45;;;5.10;;
23228;SDS011;11783;50.350;6.576;2022-12-13T12:35:43;10.30;;;4.97;;
23228;SDS011;11783;50.350;6.576;2022-12-13T12:50:21;10.65;;;5.30;;
23228;SDS011;11783;50.350;6.576;2022-12-13T12:52:59;14.27;;;5.80;;
23228;SDS011;11783;50.350;6.576;2022-12-13T13:06:39;11.13;;;5.45;;
23228;SDS011;11783;50.350;6.576;2022-12-13T13:09:11;9.32;;;5.13;;
23228;SDS011;11783;50.350;6.576;2022-12-13T13:11:41;10.52;;;5.30;;
23228;SDS011;11783;50.350;6.576;2022-12-13T13:20:11;8.90;;;4.50;;
23228;SDS011;11783;50.350;6.576;2022-12-13T13:22:41;7.22;;;3.83;;
23228;SDS011;11783;50.350;6.576;2022-12-13T13:27:34;10.48;;;4.70;;
23228;SDS011;11783;50.350;6.576;2022-12-13T13:30:06;8.43;;;4.07;;
23228;SDS011;11783;50.350;6.576;2022-12-13T13:32:40;8.10;;;3.88;;
23228;SDS011;11783;50.350;6.576;2022-12-13T13:37:57;17.80;;;7.13;;
23228;SDS011;11783;50.350;6.576;2022-12-13T13:56:44;10.97;;;4.80;;
23228;SDS011;11783;50.350;6.576;2022-12-13T14:28:23;14.50;;;6.60;;
23228;SDS011;11783;50.350;6.576;2022-12-13T14:31:01;32.67;;;12.35;;
23228;SDS011;11783;50.350;6.576;2022-12-13T14:33:26;13.35;;;6.18;;
23228;SDS011;11783;50.350;6.576;2022-12-13T14:35:57;16.35;;;8.00;;
23228;SDS011;11783;50.350;6.576;2022-12-13T14:38:24;13.88;;;6.97;;
23228;SDS011;11783;50.350;6.576;2022-12-13T14:40:53;13.68;;;6.07;;
23228;SDS011;11783;50.350;6.576;2022-12-13T14:45:54;11.18;;;6.03;;
23228;SDS011;11783;50.350;6.576;2022-12-13T14:48:21;11.88;;;5.22;;
23228;SDS011;11783;50.350;6.576;2022-12-13T14:50:47;10.98;;;5.10;;
23228;SDS011;11783;50.350;6.576;2022-12-13T14:53:46;15.75;;;5.55;;
23228;SDS011;11783;50.350;6.576;2022-12-13T14:56:12;10.30;;;4.53;;
23228;SDS011;11783;50.350;6.576;2022-12-13T14:58:39;9.02;;;4.40;;
23228;SDS011;11783;50.350;6.576;2022-12-13T15:04:14;10.73;;;4.88;;
23228;SDS011;11783;50.350;6.576;2022-12-13T15:06:43;9.55;;;5.40;;
23228;SDS011;11783;50.350;6.576;2022-12-13T15:09:11;9.05;;;5.28;;
23228;SDS011;11783;50.350;6.576;2022-12-13T15:11:39;11.27;;;5.03;;
23228;SDS011;11783;50.350;6.576;2022-12-13T15:14:10;10.38;;;4.82;;
23228;SDS011;11783;50.350;6.576;2022-12-13T15:16:53;9.90;;;4.75;;
23228;SDS011;11783;50.350;6.576;2022-12-13T15:22:00;13.38;;;6.13;;
23228;SDS011;11783;50.350;6.576;2022-12-13T15:24:29;10.48;;;5.28;;
23228;SDS011;11783;50.350;6.576;2022-12-13T15:26:56;10.40;;;5.32;;
23228;SDS011;11783;50.350;6.576;2022-12-13T15:29:24;11.50;;;5.45;;
23228;SDS011;11783;50.350;6.576;2022-12-13T15:31:51;10.20;;;4.93;;
23228;SDS011;11783;50.350;6.576;2022-12-13T15:36:55;10.45;;;5.18;;
23228;SDS011;11783;50.350;6.576;2022-12-13T15:39:43;12.95;;;6.10;;
23228;SDS011;11783;50.350;6.576;2022-12-13T15:42:17;12.52;;;5.68;;
23228;SDS011;11783;50.350;6.576;2022-12-13T15:44:56;13.75;;;6.13;;
23228;SDS011;11783;50.350;6.576;2022-12-13T15:47:25;20.27;;;8.45;;
23228;SDS011;11783;50.350;6.576;2022-12-13T15:49:55;18.65;;;8.13;;
23228;SDS011;11783;50.350;6.576;2022-12-13T15:52:24;15.55;;;7.07;;
23228;SDS011;11783;50.350;6.576;2022-12-13T15:57:34;8.13;;;4.53;;
23228;SDS011;11783;50.350;6.576;2022-12-13T16:02:48;11.52;;;5.28;;
23228;SDS011;11783;50.350;6.576;2022-12-13T16:05:35;9.65;;;4.97;;
23228;SDS011;11783;50.350;6.576;2022-12-13T16:08:17;12.32;;;5.75;;
23228;SDS011;11783;50.350;6.576;2022-12-13T16:10:52;11.70;;;5.32;;
23228;SDS011;11783;50.350;6.576;2022-12-13T16:13:22;12.07;;;5.90;;
23228;SDS011;11783;50.350;6.576;2022-12-13T16:15:59;12.38;;;6.05;;
23228;SDS011;11783;50.350;6.576;2022-12-13T16:20:56;13.52;;;5.82;;
23228;SDS011;11783;50.350;6.576;2022-12-13T16:23:22;11.55;;;5.68;;
23228;SDS011;11783;50.350;6.576;2022-12-13T16:25:47;11.70;;;5.40;;
23228;SDS011;11783;50.350;6.576;2022-12-13T16:28:13;11.32;;;5.72;;
23228;SDS011;11783;50.350;6.576;2022-12-13T16:33:21;11.55;;;5.40;;
23228;SDS011;11783;50.350;6.576;2022-12-13T16:38:14;12.18;;;5.65;;
23228;SDS011;11783;50.350;6.576;2022-12-13T16:40:40;11.88;;;5.82;;
23228;SDS011;11783;50.350;6.576;2022-12-13T16:43:07;11.20;;;5.57;;
23228;SDS011;11783;50.350;6.576;2022-12-13T16:45:40;11.57;;;5.50;;
23228;SDS011;11783;50.350;6.576;2022-12-13T16:48:10;12.95;;;5.85;;
23228;SDS011;11783;50.350;6.576;2022-12-13T16:50:36;13.10;;;6.05;;
23228;SDS011;11783;50.350;6.576;2022-12-13T16:53:05;13.45;;;6.53;;
23228;SDS011;11783;50.350;6.576;2022-12-13T16:55:31;11.45;;;6.25;;
23228;SDS011;11783;50.350;6.576;2022-12-13T16:57:57;13.50;;;6.63;;
23228;SDS011;11783;50.350;6.576;2022-12-13T17:00:24;12.77;;;5.93;;
23228;SDS011;11783;50.350;6.576;2022-12-13T17:02:50;12.10;;;6.03;;
23228;SDS011;11783;50.350;6.576;2022-12-13T17:05:17;12.93;;;6.65;;
23228;SDS011;11783;50.350;6.576;2022-12-13T17:07:42;12.98;;;6.22;;
23228;SDS011;11783;50.350;6.576;2022-12-13T17:10:08;11.63;;;5.50;;
23228;SDS011;11783;50.350;6.576;2022-12-13T17:12:34;12.50;;;5.97;;
23228;SDS011;11783;50.350;6.576;2022-12-13T17:14:59;10.93;;;6.03;;
23228;SDS011;11783;50.350;6.576;2022-12-13T17:17:25;15.27;;;6.35;;
23228;SDS011;11783;50.350;6.576;2022-12-13T17:19:51;11.50;;;5.93;;
23228;SDS011;11783;50.350;6.576;2022-12-13T17:22:16;12.82;;;6.35;;